createdAt,value
2018-08-27T00:00:42.625Z,82.53
2018-08-27T00:01:42.667Z,80.81
2018-08-27T00:02:42.727Z,81.38
2018-08-27T00:03:43.338Z,83.11
2018-08-27T00:04:42.855Z,86.90
2018-08-27T00:05:42.916Z,87.85
2018-08-27T00:06:42.978Z,88.81
2018-08-27T00:07:43.041Z,90.82
2018-08-27T00:08:43.103Z,91.39
2018-08-27T00:09:43.165Z,90.91
2018-08-27T00:10:43.230Z,92.02
2018-08-27T00:11:43.289Z,91.68
2018-08-27T00:12:43.351Z,88.90
2018-08-27T00:13:43.414Z,91.11
2018-08-27T00:14:43.476Z,91.77
2018-08-27T00:15:43.538Z,92.54
2018-08-27T00:16:43.600Z,91.30
2018-08-27T00:17:43.663Z,92.44
2018-08-27T00:18:43.725Z,93.84
2018-08-27T00:19:43.786Z,94.41
2018-08-27T00:20:43.848Z,94.70
2018-08-27T00:21:43.910Z,94.21
2018-08-27T00:22:43.972Z,95.46
2018-08-27T00:23:44.034Z,96.03
2018-08-27T00:24:44.095Z,95.75
2018-08-27T00:25:44.158Z,94.89
2018-08-27T00:26:44.220Z,95.65
2018-08-27T00:27:44.284Z,95.36
2018-08-27T00:28:44.343Z,93.93
2018-08-27T00:29:44.405Z,95.27
2018-08-27T00:30:44.468Z,96.03
2018-08-27T00:31:44.529Z,95.17
2018-08-27T00:32:44.591Z,97.18
2018-08-27T00:33:44.652Z,95.75
2018-08-27T00:34:44.715Z,95.46
2018-08-27T00:35:44.776Z,95.46
2018-08-27T00:36:44.838Z,96.03
2018-08-27T00:37:44.900Z,97.75
2018-08-27T00:38:44.963Z,96.61
2018-08-27T00:39:45.023Z,96.89
2018-08-27T00:40:45.085Z,96.70
2018-08-27T00:41:45.145Z,96.99
2018-08-27T00:42:45.209Z,98.04
2018-08-27T00:43:45.303Z,97.75
2018-08-27T00:44:45.332Z,97.18
2018-08-27T00:45:45.394Z,98.14
2018-08-27T00:46:45.459Z,96.42
2018-08-27T00:47:45.517Z,97.75
2018-08-27T00:48:45.584Z,97.75
2018-08-27T00:49:45.640Z,97.75
2018-08-27T00:50:45.704Z,97.47
2018-08-27T00:51:45.764Z,96.99
2018-08-27T00:52:45.826Z,98.71
2018-08-27T00:53:45.898Z,97.18
2018-08-27T00:54:45.949Z,97.95
2018-08-27T00:55:46.011Z,97.47
2018-08-27T00:56:46.078Z,99.00
2018-08-27T00:57:46.134Z,97.66
2018-08-27T00:58:46.199Z,98.33
2018-08-27T00:59:46.258Z,98.90
2018-08-27T01:00:46.320Z,97.85
2018-08-27T01:01:46.382Z,98.90
2018-08-27T01:02:46.444Z,99.10
2018-08-27T01:03:46.505Z,99.38
2018-08-27T01:04:46.568Z,98.71
2018-08-27T01:05:46.630Z,98.61
2018-08-27T01:06:46.701Z,97.95
2018-08-27T01:07:46.752Z,98.38
2018-08-27T01:08:46.814Z,98.38
2018-08-27T01:09:46.886Z,98.04
2018-08-27T01:10:46.938Z,98.04
2018-08-27T01:11:46.998Z,98.52
2018-08-27T01:12:47.062Z,99.00
2018-08-27T01:13:47.123Z,98.43
2018-08-27T01:14:47.185Z,98.09
2018-08-27T01:15:47.246Z,98.04
2018-08-27T01:16:47.308Z,99.43
2018-08-27T01:17:47.621Z,99.29
2018-08-27T01:18:47.432Z,99.15
2018-08-27T01:19:47.494Z,98.28
2018-08-27T01:20:47.556Z,98.47
2018-08-27T01:21:47.618Z,98.57
2018-08-27T01:22:47.693Z,98.76
2018-08-27T01:23:47.741Z,98.66
2018-08-27T01:24:47.803Z,98.57
2018-08-27T01:25:47.868Z,98.66
2018-08-27T01:26:47.928Z,99.33
2018-08-27T01:27:47.995Z,98.38
2018-08-27T01:28:48.051Z,98.66
2018-08-27T01:29:48.113Z,99.15
2018-08-27T01:30:48.175Z,99.15
2018-08-27T01:31:48.236Z,99.52
2018-08-27T01:32:48.299Z,99.99
2018-08-27T01:33:48.361Z,99.99
2018-08-27T01:34:48.423Z,98.90
2018-08-27T01:35:48.484Z,99.81
2018-08-27T01:36:48.547Z,99.48
2018-08-27T01:37:48.608Z,98.86
2018-08-27T01:38:48.670Z,99.15
2018-08-27T01:39:48.732Z,99.86
2018-08-27T01:40:48.794Z,99.33
2018-08-27T01:41:48.856Z,97.23
2018-08-27T01:42:48.919Z,98.76
2018-08-27T01:43:48.982Z,99.15
2018-08-27T01:44:49.042Z,99.33
2018-08-27T01:45:49.104Z,99.24
2018-08-27T01:46:49.167Z,99.05
2018-08-27T01:47:49.227Z,99.15
2018-08-27T01:48:49.290Z,99.05
2018-08-27T01:49:49.353Z,99.43
2018-08-27T01:50:49.414Z,98.38
2018-08-27T01:51:49.475Z,99.15
2018-08-27T01:52:49.538Z,98.19
2018-08-27T01:53:49.600Z,98.19
2018-08-27T01:54:49.661Z,98.66
2018-08-27T01:55:49.724Z,99.05
2018-08-27T01:56:49.785Z,97.80
2018-08-27T01:57:49.848Z,97.80
2018-08-27T01:58:49.912Z,98.28
2018-08-27T01:59:49.972Z,98.09
2018-08-27T02:00:50.033Z,98.00
2018-08-27T02:01:50.096Z,98.57
2018-08-27T02:02:50.159Z,98.38
2018-08-27T02:03:50.220Z,99.15
2018-08-27T02:04:50.283Z,97.61
2018-08-27T02:05:50.346Z,97.66
2018-08-27T02:06:50.407Z,97.61
2018-08-27T02:07:50.468Z,98.00
2018-08-27T02:08:50.530Z,98.19
2018-08-27T02:09:50.594Z,98.09
2018-08-27T02:10:50.658Z,98.71
2018-08-27T02:11:50.716Z,98.57
2018-08-27T02:12:50.779Z,98.86
2018-08-27T02:13:50.842Z,98.38
2018-08-27T02:14:50.906Z,98.76
2018-08-27T02:15:50.967Z,98.28
2018-08-27T02:16:51.027Z,98.38
2018-08-27T02:17:51.091Z,99.43
2018-08-27T02:18:51.153Z,99.24
2018-08-27T02:19:51.213Z,98.38
2018-08-27T02:20:51.305Z,98.38
2018-08-27T02:21:51.338Z,99.24
2018-08-27T02:22:51.407Z,98.66
2018-08-27T02:23:51.460Z,98.28
2018-08-27T02:24:51.524Z,99.15
2018-08-27T02:25:51.626Z,98.33
2018-08-27T02:26:51.651Z,97.33
2018-08-27T02:27:51.709Z,98.05
2018-08-27T02:28:51.771Z,97.66
2018-08-27T02:29:51.855Z,96.37
2018-08-27T02:30:51.896Z,95.94
2018-08-27T02:31:51.957Z,96.89
2018-08-27T02:32:52.020Z,96.13
2018-08-27T02:33:52.084Z,95.94
2018-08-27T02:34:52.148Z,88.28
2018-08-27T02:35:52.206Z,88.61
2018-08-27T02:36:52.273Z,92.06
2018-08-27T02:37:52.330Z,92.54
2018-08-27T02:38:52.393Z,94.07
2018-08-27T02:39:52.455Z,95.75
2018-08-27T02:40:52.517Z,88.51
2018-08-27T02:41:52.579Z,88.80
2018-08-27T02:42:52.642Z,93.74
2018-08-27T02:43:52.953Z,92.15
2018-08-27T02:44:52.765Z,94.12
2018-08-27T02:45:52.828Z,95.56
2018-08-27T02:46:52.890Z,94.69
2018-08-27T02:47:52.953Z,95.94
2018-08-27T02:48:53.014Z,94.69
2018-08-27T02:49:53.077Z,89.72
2018-08-27T02:50:53.138Z,92.44
2018-08-27T02:51:53.199Z,92.25
2018-08-27T02:52:53.262Z,92.35
2018-08-27T02:53:53.324Z,93.59
2018-08-27T02:54:53.388Z,94.55
2018-08-27T02:55:53.448Z,95.36
2018-08-27T02:56:53.511Z,95.84
2018-08-27T02:57:53.574Z,96.03
2018-08-27T02:58:53.636Z,96.80
2018-08-27T02:59:53.699Z,96.22
2018-08-27T03:00:53.760Z,86.55
2018-08-27T03:01:53.822Z,84.34
2018-08-27T03:02:53.884Z,84.63
2018-08-27T03:03:53.947Z,78.72
2018-08-27T03:04:54.008Z,72.24
2018-08-27T03:05:54.071Z,74.83
2018-08-27T03:06:54.141Z,72.37
2018-08-27T03:07:54.193Z,75.60
2018-08-27T03:08:54.257Z,75.79
2018-08-27T03:09:54.320Z,79.01
2018-08-27T03:10:54.389Z,76.94
2018-08-27T03:11:54.444Z,72.53
2018-08-27T03:12:54.506Z,73.20
2018-08-27T03:13:54.569Z,75.50
2018-08-27T03:14:54.632Z,73.20
2018-08-27T03:15:54.694Z,74.73
2018-08-27T03:16:54.756Z,74.35
2018-08-27T03:17:54.818Z,72.43
2018-08-27T03:18:54.882Z,69.78
2018-08-27T03:19:54.944Z,68.18
2018-08-27T03:20:55.009Z,67.90
2018-08-27T03:21:55.069Z,68.47
2018-08-27T03:22:55.131Z,68.57
2018-08-27T03:23:55.193Z,69.72
2018-08-27T03:24:55.275Z,69.87
2018-08-27T03:25:55.321Z,70.45
2018-08-27T03:26:55.384Z,71.12
2018-08-27T03:27:55.445Z,71.12
2018-08-27T03:28:55.507Z,71.51
2018-08-27T03:29:55.574Z,71.41
2018-08-27T03:30:55.635Z,71.03
2018-08-27T03:31:55.694Z,71.22
2018-08-27T03:32:55.759Z,71.12
2018-08-27T03:33:55.823Z,71.61
2018-08-27T03:34:55.885Z,71.51
2018-08-27T03:35:55.946Z,71.37
2018-08-27T03:36:56.010Z,72.18
2018-08-27T03:37:56.075Z,72.37
2018-08-27T03:38:56.138Z,72.05
2018-08-27T03:39:56.201Z,72.81
2018-08-27T03:40:56.261Z,73.33
2018-08-27T03:41:56.324Z,73.58
2018-08-27T03:42:56.386Z,74.26
2018-08-27T03:43:56.449Z,75.12
2018-08-27T03:44:56.511Z,75.12
2018-08-27T03:45:56.574Z,75.40
2018-08-27T03:46:56.638Z,75.50
2018-08-27T03:47:56.700Z,75.70
2018-08-27T03:48:56.767Z,75.70
2018-08-27T03:49:56.827Z,75.40
2018-08-27T03:50:56.889Z,75.60
2018-08-27T03:51:56.955Z,76.17
2018-08-27T03:52:57.015Z,76.46
2018-08-27T03:53:57.093Z,76.75
2018-08-27T03:54:57.142Z,76.27
2018-08-27T03:55:57.201Z,76.07
2018-08-27T03:56:57.271Z,76.56
2018-08-27T03:57:57.328Z,76.27
2018-08-27T03:58:57.692Z,76.37
2018-08-27T03:59:57.457Z,76.32
2018-08-27T04:00:57.535Z,77.13
2018-08-27T04:01:57.579Z,77.13
2018-08-27T04:02:57.642Z,77.04
2018-08-27T04:03:57.708Z,77.04
2018-08-27T04:04:57.767Z,76.75
2018-08-27T04:05:57.830Z,77.33
2018-08-27T04:06:57.893Z,77.33
2018-08-27T04:07:57.957Z,77.61
2018-08-27T04:08:58.018Z,77.61
2018-08-27T04:09:58.081Z,77.67
2018-08-27T04:10:58.165Z,78.25
2018-08-27T04:11:58.207Z,78.92
2018-08-27T04:12:58.269Z,79.30
2018-08-27T04:13:58.333Z,78.82
2018-08-27T04:14:58.395Z,79.39
2018-08-27T04:15:58.457Z,79.34
2018-08-27T04:16:58.520Z,79.44
2018-08-27T04:17:58.584Z,79.59
2018-08-27T04:18:58.646Z,80.35
2018-08-27T04:19:58.712Z,80.55
2018-08-27T04:20:58.770Z,81.02
2018-08-27T04:21:58.833Z,81.31
2018-08-27T04:22:58.898Z,82.75
2018-08-27T04:23:58.959Z,83.23
2018-08-27T04:24:59.022Z,83.33
2018-08-27T04:25:59.084Z,83.81
2018-08-27T04:26:59.147Z,84.38
2018-08-27T04:27:59.210Z,84.86
2018-08-27T04:28:59.273Z,85.34
2018-08-27T04:29:59.342Z,85.44
2018-08-27T04:30:59.397Z,85.92
2018-08-27T04:31:59.460Z,86.74
2018-08-27T04:32:59.521Z,87.50
2018-08-27T04:33:59.596Z,88.27
2018-08-27T04:35:00.012Z,89.51
2018-08-27T04:35:59.710Z,89.71
2018-08-27T04:36:59.773Z,90.38
2018-08-27T04:37:59.842Z,90.09
2018-08-27T04:38:59.898Z,91.19
2018-08-27T04:39:59.963Z,91.43
2018-08-27T04:41:00.024Z,91.82
2018-08-27T04:42:00.086Z,91.72
2018-08-27T04:43:00.150Z,92.58
2018-08-27T04:44:00.230Z,92.82
2018-08-27T04:45:00.272Z,92.82
2018-08-27T04:46:00.335Z,92.82
2018-08-27T04:47:00.473Z,93.21
2018-08-27T04:48:00.460Z,94.02
2018-08-27T04:49:00.522Z,93.93
2018-08-27T04:50:00.597Z,93.78
2018-08-27T04:51:00.646Z,94.45
2018-08-27T04:52:00.707Z,94.84
2018-08-27T04:53:00.773Z,94.74
2018-08-27T04:54:00.834Z,94.84
2018-08-27T04:55:01.148Z,94.45
2018-08-27T04:56:00.958Z,94.93
2018-08-27T04:57:01.021Z,95.41
2018-08-27T04:58:01.082Z,95.12
2018-08-27T04:59:01.146Z,95.98
2018-08-27T05:00:01.224Z,96.08
2018-08-27T05:01:01.270Z,95.70
2018-08-27T05:02:01.336Z,95.98
2018-08-27T05:03:01.395Z,95.98
2018-08-27T05:04:01.456Z,96.37
2018-08-27T05:05:01.520Z,96.27
2018-08-27T05:06:01.581Z,96.27
2018-08-27T05:07:01.643Z,96.18
2018-08-27T05:08:01.705Z,96.47
2018-08-27T05:09:01.771Z,96.66
2018-08-27T05:10:01.836Z,97.33
2018-08-27T05:11:02.437Z,97.85
2018-08-27T05:12:01.956Z,97.66
2018-08-27T05:13:02.015Z,97.71
2018-08-27T05:14:02.078Z,97.90
2018-08-27T05:15:02.141Z,97.75
2018-08-27T05:16:02.208Z,98.14
2018-08-27T05:17:02.300Z,98.62
2018-08-27T05:18:02.327Z,99.10
2018-08-27T05:19:02.422Z,99.19
2018-08-27T05:20:02.452Z,99.48
2018-08-27T05:21:02.514Z,99.00
2018-08-27T05:22:02.576Z,99.19
2018-08-27T05:23:02.639Z,98.71
2018-08-27T05:24:03.008Z,98.91
2018-08-27T05:25:02.762Z,98.43
2018-08-27T05:26:02.825Z,98.62
2018-08-27T05:27:02.887Z,98.47
2018-08-27T05:28:02.948Z,98.71
2018-08-27T05:29:03.016Z,98.71
2018-08-27T05:30:03.076Z,98.43
2018-08-27T05:31:03.250Z,98.71
2018-08-27T05:32:03.196Z,98.62
2018-08-27T05:33:03.258Z,98.43
2018-08-27T05:34:03.321Z,98.43
2018-08-27T05:35:03.383Z,98.24
2018-08-27T05:36:03.445Z,98.43
2018-08-27T05:37:03.532Z,98.47
2018-08-27T05:38:03.630Z,98.47
2018-08-27T05:39:03.943Z,98.43
2018-08-27T05:40:03.714Z,98.24
2018-08-27T05:41:03.801Z,98.33
2018-08-27T05:42:03.817Z,98.47
2018-08-27T05:43:03.881Z,98.28
2018-08-27T05:44:03.947Z,98.67
2018-08-27T05:45:04.009Z,98.86
2018-08-27T05:46:04.073Z,98.47
2018-08-27T05:47:04.130Z,99.05
2018-08-27T05:48:04.194Z,98.86
2018-08-27T05:49:04.254Z,98.28
2018-08-27T05:50:04.317Z,98.86
2018-08-27T05:51:04.379Z,98.86
2018-08-27T05:52:04.446Z,99.15
2018-08-27T05:53:04.514Z,99.34
2018-08-27T05:54:04.585Z,99.15
2018-08-27T05:55:04.631Z,98.67
2018-08-27T05:56:04.690Z,98.28
2018-08-27T05:57:04.751Z,97.90
2018-08-27T05:58:04.817Z,97.71
2018-08-27T05:59:04.877Z,98.38
2018-08-27T06:00:04.939Z,98.28
2018-08-27T06:01:05.001Z,98.47
2018-08-27T06:02:05.064Z,98.67
2018-08-27T06:03:05.128Z,98.57
2018-08-27T06:04:05.189Z,99.15
2018-08-27T06:05:05.250Z,99.34
2018-08-27T06:06:05.319Z,98.57
2018-08-27T06:07:05.376Z,99.05
2018-08-27T06:08:05.440Z,99.15
2018-08-27T06:09:05.545Z,99.34
2018-08-27T06:10:05.564Z,99.24
2018-08-27T06:11:05.643Z,99.43
2018-08-27T06:12:05.688Z,99.15
2018-08-27T06:13:05.751Z,99.24
2018-08-27T06:14:05.812Z,99.43
2018-08-27T06:15:05.875Z,98.86
2018-08-27T06:16:05.976Z,98.96
2018-08-27T06:17:06.081Z,99.05
2018-08-27T06:18:06.063Z,99.15
2018-08-27T06:19:06.126Z,99.05
2018-08-27T06:20:06.189Z,99.15
2018-08-27T06:21:06.251Z,99.05
2018-08-27T06:22:06.390Z,98.47
2018-08-27T06:23:06.376Z,98.28
2018-08-27T06:24:06.439Z,98.00
2018-08-27T06:25:06.567Z,98.14
2018-08-27T06:26:06.564Z,97.85
2018-08-27T06:27:06.627Z,97.56
2018-08-27T06:28:06.689Z,98.33
2018-08-27T06:29:06.753Z,97.95
2018-08-27T06:30:06.815Z,98.28
2018-08-27T06:31:06.878Z,97.80
2018-08-27T06:32:06.940Z,97.90
2018-08-27T06:33:07.002Z,98.47
2018-08-27T06:34:07.065Z,98.67
2018-08-27T06:35:07.132Z,98.76
2018-08-27T06:36:07.273Z,98.86
2018-08-27T06:37:07.254Z,98.38
2018-08-27T06:38:07.401Z,98.57
2018-08-27T06:39:07.385Z,98.67
2018-08-27T06:40:07.445Z,98.38
2018-08-27T06:41:07.504Z,98.28
2018-08-27T06:42:07.570Z,98.28
2018-08-27T06:43:07.630Z,98.67
2018-08-27T06:44:07.693Z,99.43
2018-08-27T06:45:07.756Z,99.43
2018-08-27T06:46:07.834Z,98.62
2018-08-27T06:47:07.888Z,98.86
2018-08-27T06:48:07.943Z,98.67
2018-08-27T06:49:08.007Z,98.67
2018-08-27T06:50:08.069Z,98.72
2018-08-27T06:51:08.132Z,98.43
2018-08-27T06:52:08.197Z,98.38
2018-08-27T06:53:08.260Z,98.72
2018-08-27T06:54:08.321Z,98.62
2018-08-27T06:55:08.384Z,98.52
2018-08-27T06:56:08.445Z,98.47
2018-08-27T06:57:08.508Z,98.57
2018-08-27T06:58:08.571Z,98.47
2018-08-27T06:59:08.633Z,99.53
2018-08-27T07:00:09.010Z,99.19
2018-08-27T07:01:12.173Z,98.52
2018-08-27T07:02:08.870Z,98.62
2018-08-27T07:03:09.235Z,98.47
2018-08-27T07:04:08.977Z,98.33
2018-08-27T07:05:09.008Z,98.10
2018-08-27T07:06:09.072Z,99.15
2018-08-27T07:07:09.135Z,99.24
2018-08-27T07:08:09.196Z,99.05
2018-08-27T07:09:09.261Z,98.96
2018-08-27T07:10:09.325Z,99.19
2018-08-27T07:11:09.407Z,99.05
2018-08-27T07:12:09.467Z,99.63
2018-08-27T07:13:09.530Z,99.43
2018-08-27T07:14:09.592Z,99.72
2018-08-27T07:15:09.656Z,99.82
2018-08-27T07:16:09.699Z,99.87
2018-08-27T07:17:09.771Z,99.82
2018-08-27T07:18:09.825Z,99.99
2018-08-27T07:19:09.888Z,99.99
2018-08-27T07:20:09.998Z,99.99
2018-08-27T07:21:10.322Z,99.99
2018-08-27T07:22:10.077Z,99.99
2018-08-27T07:23:10.142Z,99.99
2018-08-27T07:24:10.205Z,99.99
2018-08-27T07:25:10.265Z,99.99
2018-08-27T07:26:10.807Z,99.99
2018-08-27T07:27:10.542Z,99.72
2018-08-27T07:28:10.454Z,99.99
2018-08-27T07:29:10.517Z,99.99
2018-08-27T07:30:11.656Z,99.99
2018-08-27T07:31:10.642Z,99.99
2018-08-27T07:32:10.705Z,99.99
2018-08-27T07:33:10.767Z,99.99
2018-08-27T07:34:10.830Z,99.87
2018-08-27T07:35:10.894Z,99.99
2018-08-27T07:36:11.009Z,99.39
2018-08-27T07:37:11.018Z,99.87
2018-08-27T07:38:11.083Z,99.96
2018-08-27T07:39:11.150Z,99.82
2018-08-27T07:40:11.207Z,99.99
2018-08-27T07:41:11.270Z,99.99
2018-08-27T07:42:11.334Z,99.99
2018-08-27T07:43:11.396Z,99.99
2018-08-27T07:44:11.458Z,99.87
2018-08-27T07:45:11.522Z,99.29
2018-08-27T07:46:11.587Z,99.29
2018-08-27T07:47:11.648Z,98.52
2018-08-27T07:48:11.710Z,99.01
2018-08-27T07:49:11.773Z,99.48
2018-08-27T07:50:11.837Z,99.39
2018-08-27T07:51:11.954Z,98.72
2018-08-27T07:52:11.962Z,98.91
2018-08-27T07:53:12.054Z,99.39
2018-08-27T07:54:12.116Z,99.19
2018-08-27T07:55:12.152Z,99.29
2018-08-27T07:56:12.218Z,99.19
2018-08-27T07:57:12.277Z,98.14
2018-08-27T07:58:12.340Z,98.67
2018-08-27T07:59:12.403Z,98.67
2018-08-27T08:00:12.466Z,98.52
2018-08-27T08:01:12.529Z,98.57
2018-08-27T08:02:55.055Z,98.57
2018-08-27T08:03:55.097Z,98.52
2018-08-27T08:04:55.159Z,98.52
2018-08-27T08:05:55.223Z,98.38
2018-08-27T08:06:55.286Z,98.48
2018-08-27T08:07:55.349Z,98.67
2018-08-27T08:08:55.413Z,98.77
2018-08-27T08:09:55.476Z,98.38
2018-08-27T08:10:55.538Z,98.38
2018-08-27T08:11:55.854Z,98.48
2018-08-27T08:12:55.977Z,98.57
2018-08-27T08:13:55.729Z,98.33
2018-08-27T08:14:55.794Z,98.81
2018-08-27T08:15:55.856Z,99.48
2018-08-27T08:16:55.919Z,98.81
2018-08-27T08:17:55.985Z,99.19
2018-08-27T08:18:56.045Z,99.10
2018-08-27T08:19:56.109Z,99.29
2018-08-27T08:20:56.171Z,99.58
2018-08-27T08:23:28.826Z,99.99
2018-08-27T08:24:28.889Z,99.68
2018-08-27T08:25:28.950Z,99.48
2018-08-27T08:26:29.057Z,99.29
2018-08-27T08:27:29.078Z,98.91
2018-08-27T08:28:29.154Z,99.39
2018-08-27T08:29:29.205Z,99.68
2018-08-27T08:30:29.267Z,99.48
2018-08-27T08:31:29.338Z,99.73
2018-08-27T08:32:29.393Z,99.53
2018-08-27T08:33:29.462Z,99.01
2018-08-27T08:34:29.520Z,99.77
2018-08-27T08:35:29.586Z,99.48
2018-08-27T08:36:29.647Z,99.29
2018-08-27T08:37:29.711Z,99.68
2018-08-27T08:38:29.773Z,99.29
2018-08-27T08:39:29.836Z,99.63
2018-08-27T08:40:29.907Z,99.34
2018-08-27T08:41:29.963Z,99.24
2018-08-27T08:42:30.026Z,99.39
2018-08-27T08:43:30.089Z,99.29
2018-08-27T08:44:30.153Z,99.24
2018-08-27T08:45:30.250Z,99.15
2018-08-27T08:46:30.278Z,98.67
2018-08-27T08:47:30.409Z,98.77
2018-08-27T08:48:30.406Z,99.24
2018-08-27T08:49:30.470Z,98.67
2018-08-27T08:50:30.532Z,98.96
2018-08-27T08:51:30.596Z,99.05
2018-08-27T08:52:30.711Z,99.01
2018-08-27T08:53:30.783Z,99.58
2018-08-27T08:54:30.788Z,99.99
2018-08-27T08:55:30.849Z,99.99
2018-08-27T08:56:30.916Z,99.99
2018-08-27T08:57:31.462Z,99.53
2018-08-27T08:58:31.043Z,99.15
2018-08-27T08:59:31.103Z,98.43
2018-08-27T09:00:31.167Z,98.57
2018-08-27T09:01:31.281Z,99.15
2018-08-27T09:02:31.294Z,99.15
2018-08-27T09:03:31.735Z,99.24
2018-08-27T09:04:31.423Z,98.96
2018-08-27T09:05:31.501Z,98.82
2018-08-27T09:06:31.549Z,98.62
2018-08-27T09:07:31.611Z,99.58
2018-08-27T09:08:31.906Z,98.24
2018-08-27T09:09:31.744Z,98.62
2018-08-27T09:10:31.803Z,98.43
2018-08-27T09:11:31.883Z,98.43
2018-08-27T09:12:32.181Z,97.95
2018-08-27T09:13:31.997Z,98.43
2018-08-27T09:14:32.060Z,98.53
2018-08-27T09:15:32.124Z,99.39
2018-08-27T09:16:32.189Z,98.43
2018-08-27T09:17:32.324Z,98.72
2018-08-27T09:18:32.316Z,98.33
2018-08-27T09:19:32.379Z,98.24
2018-08-27T09:20:32.444Z,97.66
2018-08-27T09:21:32.508Z,97.71
2018-08-27T09:22:32.571Z,98.00
2018-08-27T09:23:32.640Z,97.33
2018-08-27T09:24:32.700Z,97.76
2018-08-27T09:25:32.764Z,98.24
2018-08-27T09:26:32.827Z,98.00
2018-08-27T09:27:32.894Z,97.71
2018-08-27T09:28:32.961Z,97.42
2018-08-27T09:29:33.020Z,97.24
2018-08-27T09:30:33.085Z,97.04
2018-08-27T09:31:33.151Z,98.10
2018-08-27T09:32:33.632Z,97.33
2018-08-27T09:33:36.310Z,97.33
2018-08-27T09:34:33.353Z,96.66
2018-08-27T09:35:33.410Z,96.42
2018-08-27T09:36:33.471Z,96.27
2018-08-27T09:37:33.590Z,96.61
2018-08-27T09:38:33.599Z,96.22
2018-08-27T09:39:33.664Z,96.37
2018-08-27T09:40:33.731Z,97.42
2018-08-27T09:41:33.868Z,97.47
2018-08-27T09:42:33.859Z,96.89
2018-08-27T09:43:33.923Z,96.51
2018-08-27T09:44:33.988Z,96.42
2018-08-27T09:45:34.054Z,96.47
2018-08-27T09:46:34.118Z,96.56
2018-08-27T09:47:34.183Z,97.28
2018-08-27T09:48:34.248Z,97.38
2018-08-27T09:49:34.313Z,97.28
2018-08-27T09:50:34.377Z,96.61
2018-08-27T09:51:34.443Z,96.08
2018-08-27T09:52:34.537Z,96.27
2018-08-27T09:53:35.265Z,96.47
2018-08-27T09:54:34.700Z,95.70
2018-08-27T09:55:35.269Z,95.79
2018-08-27T09:56:34.773Z,95.55
2018-08-27T09:57:34.840Z,96.99
2018-08-27T09:58:34.906Z,96.89
2018-08-27T09:59:34.964Z,96.51
2018-08-27T10:00:35.030Z,96.66
2018-08-27T10:01:35.096Z,96.08
2018-08-27T10:02:35.163Z,95.84
2018-08-27T10:03:35.229Z,96.32
2018-08-27T10:04:35.290Z,96.94
2018-08-27T10:05:35.357Z,96.32
2018-08-27T10:06:35.420Z,96.89
2018-08-27T10:07:35.485Z,97.28
2018-08-27T10:08:35.550Z,96.89
2018-08-27T10:09:35.619Z,97.57
2018-08-27T10:10:35.680Z,97.81
2018-08-27T10:11:35.746Z,97.71
2018-08-27T10:12:35.811Z,98.29
2018-08-27T10:13:35.875Z,98.67
2018-08-27T10:14:35.940Z,98.67
2018-08-27T10:15:36.006Z,98.77
2018-08-27T10:16:36.070Z,99.20
2018-08-27T10:17:36.137Z,99.25
2018-08-27T10:18:36.199Z,99.54
2018-08-27T10:19:36.263Z,99.34
2018-08-27T10:20:36.331Z,99.63
2018-08-27T10:21:36.399Z,98.77
2018-08-27T10:22:36.533Z,99.05
2018-08-27T10:23:36.521Z,99.99
2018-08-27T10:24:36.587Z,99.99
2018-08-27T10:25:36.661Z,99.99
2018-08-27T10:26:36.880Z,99.82
2018-08-27T10:27:36.780Z,99.30
2018-08-27T10:28:36.844Z,98.48
2018-08-27T10:29:36.909Z,99.20
2018-08-27T10:30:36.973Z,99.10
2018-08-27T10:31:37.038Z,98.72
2018-08-27T10:32:37.103Z,98.63
2018-08-27T10:33:37.168Z,99.25
2018-08-27T10:34:37.232Z,99.05
2018-08-27T10:35:37.297Z,99.68
2018-08-27T10:36:37.362Z,99.49
2018-08-27T10:37:37.429Z,98.43
2018-08-27T10:38:37.489Z,98.91
2018-08-27T10:39:37.555Z,98.53
2018-08-27T10:40:37.620Z,98.72
2018-08-27T10:41:38.034Z,98.82
2018-08-27T10:42:37.751Z,98.72
2018-08-27T10:43:37.913Z,98.72
2018-08-27T10:44:37.878Z,98.72
2018-08-27T10:45:37.943Z,98.91
2018-08-27T10:46:38.007Z,98.39
2018-08-27T10:47:38.072Z,98.00
2018-08-27T10:48:38.137Z,97.14
2018-08-27T10:49:38.206Z,96.13
2018-08-27T10:50:38.267Z,96.47
2018-08-27T10:51:38.954Z,96.80
2018-08-27T10:52:38.407Z,96.32
2018-08-27T10:53:38.460Z,96.51
2018-08-27T10:54:38.526Z,96.70
2018-08-27T10:55:38.591Z,96.13
2018-08-27T10:56:38.656Z,96.42
2018-08-27T10:57:38.765Z,96.66
2018-08-27T10:58:38.789Z,97.14
2018-08-27T10:59:38.851Z,97.52
2018-08-27T11:00:38.917Z,97.09
2018-08-27T11:01:38.982Z,96.80
2018-08-27T11:02:39.045Z,96.32
2018-08-27T11:03:39.111Z,95.55
2018-08-27T11:04:39.177Z,95.31
2018-08-27T11:05:39.244Z,96.03
2018-08-27T11:06:39.634Z,96.32
2018-08-27T11:07:39.371Z,96.13
2018-08-27T11:08:39.689Z,96.42
2018-08-27T11:09:39.528Z,96.13
2018-08-27T11:10:39.585Z,96.51
2018-08-27T11:11:39.638Z,96.70
2018-08-27T11:12:39.699Z,97.04
2018-08-27T11:13:40.392Z,97.28
2018-08-27T11:14:39.828Z,97.28
2018-08-27T11:15:39.898Z,97.14
2018-08-27T11:16:40.600Z,97.52
2018-08-27T11:17:40.025Z,97.42
2018-08-27T11:18:40.090Z,98.00
2018-08-27T11:19:40.232Z,97.33
2018-08-27T11:20:40.399Z,97.19
2018-08-27T11:21:40.840Z,96.99
2018-08-27T11:22:41.221Z,97.67
2018-08-27T11:23:40.415Z,97.24
2018-08-27T11:24:40.479Z,97.86
2018-08-27T11:25:40.545Z,97.38
2018-08-27T11:26:40.825Z,96.99
2018-08-27T11:27:40.675Z,96.80
2018-08-27T11:28:44.687Z,96.37
2018-08-27T11:29:40.806Z,95.98
2018-08-27T11:30:40.874Z,96.32
2018-08-27T11:31:40.936Z,96.42
2018-08-27T11:32:41.004Z,96.70
2018-08-27T11:33:41.066Z,97.09
2018-08-27T11:34:41.131Z,96.37
2018-08-27T11:35:41.196Z,95.98
2018-08-27T11:36:41.262Z,96.47
2018-08-27T11:37:41.327Z,96.17
2018-08-27T11:38:41.413Z,95.65
2018-08-27T11:39:41.459Z,95.98
2018-08-27T11:40:41.526Z,95.79
2018-08-27T11:41:41.638Z,96.32
2018-08-27T11:42:41.655Z,96.90
2018-08-27T11:43:41.724Z,97.33
2018-08-27T11:44:41.787Z,97.38
2018-08-27T11:45:41.856Z,97.42
2018-08-27T11:46:41.917Z,96.56
2018-08-27T11:47:41.984Z,96.75
2018-08-27T11:48:42.055Z,96.85
2018-08-27T11:49:42.115Z,97.38
2018-08-27T11:50:42.318Z,96.90
2018-08-27T11:51:42.274Z,96.94
2018-08-27T11:52:42.312Z,97.24
2018-08-27T11:53:42.378Z,97.14
2018-08-27T11:54:42.444Z,95.98
2018-08-27T11:55:42.512Z,96.27
2018-08-27T11:56:42.574Z,96.85
2018-08-27T11:57:42.639Z,96.85
2018-08-27T11:58:42.807Z,97.14
2018-08-27T11:59:42.770Z,97.33
2018-08-27T12:00:42.834Z,97.33
2018-08-27T12:01:42.901Z,97.33
2018-08-27T12:02:42.968Z,96.56
2018-08-27T12:03:43.034Z,97.24
2018-08-27T12:04:43.100Z,96.94
2018-08-27T12:05:43.164Z,96.42
2018-08-27T12:06:43.228Z,95.84
2018-08-27T12:07:43.294Z,96.42
2018-08-27T12:08:43.401Z,96.42
2018-08-27T12:09:43.426Z,96.61
2018-08-27T12:10:43.491Z,95.74
2018-08-27T12:11:43.557Z,95.84
2018-08-27T12:12:43.623Z,95.84
2018-08-27T12:13:43.689Z,96.22
2018-08-27T12:14:43.754Z,96.42
2018-08-27T12:15:43.820Z,96.22
2018-08-27T12:16:43.890Z,96.42
2018-08-27T12:17:43.954Z,95.45
2018-08-27T12:18:44.022Z,95.69
2018-08-27T12:19:44.083Z,94.54
2018-08-27T12:20:44.149Z,95.31
2018-08-27T12:21:44.219Z,95.45
2018-08-27T12:22:44.280Z,95.12
2018-08-27T12:23:44.365Z,94.44
2018-08-27T12:24:44.412Z,95.21
2018-08-27T12:25:44.496Z,95.26
2018-08-27T12:26:44.550Z,95.40
2018-08-27T12:27:44.615Z,95.40
2018-08-27T12:28:44.676Z,93.81
2018-08-27T12:29:44.741Z,93.72
2018-08-27T12:30:44.840Z,93.14
2018-08-27T12:31:44.872Z,92.47
2018-08-27T12:32:44.965Z,92.03
2018-08-27T12:33:45.005Z,92.37
2018-08-27T12:34:45.072Z,91.45
2018-08-27T12:35:45.138Z,91.64
2018-08-27T12:36:45.202Z,91.64
2018-08-27T12:37:45.304Z,91.69
2018-08-27T12:38:45.334Z,91.55
2018-08-27T12:39:45.401Z,90.92
2018-08-27T12:40:45.698Z,90.05
2018-08-27T12:41:45.535Z,90.05
2018-08-27T12:42:45.599Z,90.58
2018-08-27T12:43:45.674Z,90.39
2018-08-27T12:44:45.736Z,90.15
2018-08-27T12:45:45.802Z,89.76
2018-08-27T12:46:46.385Z,90.00
2018-08-27T12:47:45.934Z,90.88
2018-08-27T12:48:46.003Z,91.64
2018-08-27T12:49:46.648Z,92.13
2018-08-27T12:50:46.671Z,92.22
2018-08-27T12:51:46.204Z,92.22
2018-08-27T12:52:46.283Z,92.66
2018-08-27T12:53:46.341Z,93.33
2018-08-27T12:54:46.848Z,93.52
2018-08-27T12:55:46.470Z,94.10